PWSweather.com
Personal Weather Stations
Station Observations
OINOFYTA
Oinofyta Greece, OinofytaGR 320 11

Oinofyta GreeceOinofytaGR 320 11

Lat: 38.3080648, Lon: 23.6391172

Elevation: 354

Station Type: ProWeatherStation 1080

https://oinofytaweather.gr/

High Low Average
Temperature 42.3°F5.7°C 33.1°F0.6°C 37.0°F2.8°C
Dew Point 38.2°F3.4°C 32.8°F0.4°C 35.7°F2.1°C
Winds 5.1 mph 8.2 kmh 1.1 mph 1.8 kmh 3.0 mph WSW4.8 kmh WSW
Wind Gusts 11.4 mph18.3 kmh 3.8 mph6.1 kmh 7.0 mph11.3 kmh
Humidity 99% 74% 96%
Pressure 30.36 in1028.1 mb 30.29 in1025.7 mb -
Precipitation 1.51 in38.4 mm - -
Hour Temp Dew Point Humidity Winds Wind Gusts Pressure Precip Precip Rate Daily Precip Total
12:00 AM 41.9°F5.5°C 34.6°F1.4°C 75% 2.9 mph W4.7 kmh W 9.8 mph15.8 kmh 30.36 in1028.1 mb 0.00 in0.0 mm 0.00 in0.0 mm 0.00 in0.0 mm
12:05 AM 41.9°F5.5°C 34.2°F1.2°C 74% 2.8 mph WSW4.5 kmh WSW 6.9 mph11.1 kmh 30.35 in1027.8 mb 0.00 in0.0 mm 0.00 in0.0 mm 0.00 in0.0 mm
12:10 AM 42.1°F5.6°C 34.4°F1.3°C 74% 3.2 mph SW5.1 kmh SW 6.9 mph11.1 kmh 30.35 in1027.8 mb 0.00 in0.0 mm 0.00 in0.0 mm 0.00 in0.0 mm
12:15 AM 41.9°F5.5°C 34.2°F1.2°C 74% 3.2 mph WSW5.1 kmh WSW 7.6 mph12.2 kmh 30.35 in1027.8 mb 0.00 in0.0 mm 0.00 in0.0 mm 0.00 in0.0 mm
12:20 AM 41.9°F5.5°C 34.2°F1.2°C 74% 2.9 mph W4.7 kmh W 7.6 mph12.2 kmh 30.36 in1028.1 mb 0.00 in0.0 mm 0.00 in0.0 mm 0.00 in0.0 mm
12:25 AM 42.1°F5.6°C 34.4°F1.3°C 74% 2.9 mph W4.7 kmh W 6.9 mph11.1 kmh 30.35 in1027.8 mb 0.00 in0.0 mm 0.00 in0.0 mm 0.00 in0.0 mm
12:30 AM 42.1°F5.6°C 34.4°F1.3°C 74% 2.9 mph W4.7 kmh W 6.9 mph11.1 kmh 30.35 in1027.8 mb 0.00 in0.0 mm 0.00 in0.0 mm 0.00 in0.0 mm
12:35 AM 42.3°F5.7°C 34.6°F1.4°C 74% 3.1 mph W5.0 kmh W 7.6 mph12.2 kmh 30.35 in1027.8 mb 0.00 in0.0 mm 0.00 in0.0 mm 0.00 in0.0 mm
12:40 AM 42.1°F5.6°C 34.4°F1.3°C 74% 3.3 mph W5.3 kmh W 7.6 mph12.2 kmh 30.35 in1027.8 mb 0.00 in0.0 mm 0.00 in0.0 mm 0.00 in0.0 mm
12:45 AM 42.3°F5.7°C 34.6°F1.4°C 74% 3.7 mph W6.0 kmh W 9.2 mph14.8 kmh 30.35 in1027.8 mb 0.00 in0.0 mm 0.00 in0.0 mm 0.00 in0.0 mm
12:50 AM 42.1°F5.6°C 34.4°F1.3°C 74% 3.7 mph W6.0 kmh W 9.2 mph14.8 kmh 30.35 in1027.8 mb 0.00 in0.0 mm 0.00 in0.0 mm 0.00 in0.0 mm
12:55 AM 42.1°F5.6°C 34.4°F1.3°C 74% 3.3 mph WSW5.3 kmh WSW 7.6 mph12.2 kmh 30.35 in1027.8 mb 0.00 in0.0 mm 0.00 in0.0 mm 0.00 in0.0 mm
01:00 AM 42.1°F5.6°C 34.4°F1.3°C 74% 3.3 mph WSW5.3 kmh WSW 8.3 mph13.4 kmh 30.35 in1027.8 mb 0.00 in0.0 mm 0.00 in0.0 mm 0.00 in0.0 mm
01:05 AM 42.3°F5.7°C 34.6°F1.4°C 74% 3.1 mph WSW5.0 kmh WSW 8.3 mph13.4 kmh 30.35 in1027.8 mb 0.00 in0.0 mm 0.00 in0.0 mm 0.00 in0.0 mm
01:10 AM 42.3°F5.7°C 34.6°F1.4°C 74% 2.5 mph WSW4.0 kmh WSW 8.3 mph13.4 kmh 30.35 in1027.8 mb 0.00 in0.0 mm 0.00 in0.0 mm 0.00 in0.0 mm
01:15 AM 42.3°F5.7°C 34.6°F1.4°C 74% 2.3 mph WSW3.7 kmh WSW 8.3 mph13.4 kmh 30.33 in1027.1 mb 0.00 in0.0 mm 0.00 in0.0 mm 0.00 in0.0 mm
01:20 AM 42.3°F5.7°C 34.6°F1.4°C 74% 3.0 mph WSW4.8 kmh WSW 8.3 mph13.4 kmh 30.33 in1027.1 mb 0.00 in0.0 mm 0.00 in0.0 mm 0.00 in0.0 mm
01:25 AM 42.3°F5.7°C 34.6°F1.4°C 74% 2.6 mph WSW4.2 kmh WSW 7.6 mph12.2 kmh 30.33 in1027.1 mb 0.00 in0.0 mm 0.00 in0.0 mm 0.00 in0.0 mm
01:30 AM 42.1°F5.6°C 34.4°F1.3°C 74% 1.5 mph SW2.4 kmh SW 5.4 mph8.7 kmh 30.32 in1026.8 mb 0.00 in0.0 mm 0.00 in0.0 mm 0.00 in0.0 mm
01:35 AM 42.1°F5.6°C 34.4°F1.3°C 74% 1.2 mph SW1.9 kmh SW 4.5 mph7.2 kmh 30.32 in1026.8 mb 0.00 in0.0 mm 0.00 in0.0 mm 0.00 in0.0 mm
01:40 AM 41.9°F5.5°C 34.6°F1.4°C 75% 1.2 mph SW1.9 kmh SW 4.5 mph7.2 kmh 30.32 in1026.8 mb 0.00 in0.0 mm 0.00 in0.0 mm 0.00 in0.0 mm
01:45 AM 41.7°F5.4°C 34.1°F1.2°C 74% 1.8 mph WSW2.9 kmh WSW 5.4 mph8.7 kmh 30.31 in1026.4 mb 0.00 in0.0 mm 0.00 in0.0 mm 0.00 in0.0 mm
01:50 AM 41.7°F5.4°C 34.4°F1.3°C 75% 1.8 mph WSW2.9 kmh WSW 5.4 mph8.7 kmh 30.31 in1026.4 mb 0.00 in0.0 mm 0.00 in0.0 mm 0.00 in0.0 mm
01:55 AM 41.5°F5.3°C 34.2°F1.2°C 75% 1.4 mph WSW2.3 kmh WSW 5.4 mph8.7 kmh 30.31 in1026.4 mb 0.00 in0.0 mm 0.00 in0.0 mm 0.00 in0.0 mm
02:00 AM 41.5°F5.3°C 34.5°F1.4°C 76% 1.4 mph WSW2.3 kmh WSW 5.4 mph8.7 kmh 30.31 in1026.4 mb 0.00 in0.0 mm 0.00 in0.0 mm 0.00 in0.0 mm
02:05 AM 41.7°F5.4°C 34.7°F1.5°C 76% 2.0 mph SW3.2 kmh SW 6.0 mph9.7 kmh 30.32 in1026.8 mb 0.00 in0.0 mm 0.00 in0.0 mm 0.00 in0.0 mm
02:10 AM 41.7°F5.4°C 34.7°F1.5°C 76% 2.3 mph SW3.7 kmh SW 6.0 mph9.7 kmh 30.32 in1026.8 mb 0.00 in0.0 mm 0.00 in0.0 mm 0.00 in0.0 mm
02:15 AM 41.7°F5.4°C 34.7°F1.5°C 76% 2.2 mph WSW3.5 kmh WSW 6.0 mph9.7 kmh 30.33 in1027.1 mb 0.00 in0.0 mm 0.00 in0.0 mm 0.00 in0.0 mm
02:20 AM 41.7°F5.4°C 34.7°F1.5°C 76% 1.7 mph SW2.7 kmh SW 6.0 mph9.7 kmh 30.33 in1027.1 mb 0.00 in0.0 mm 0.00 in0.0 mm 0.00 in0.0 mm
02:25 AM 41.7°F5.4°C 34.7°F1.5°C 76% 1.7 mph SW2.7 kmh SW 6.0 mph9.7 kmh 30.32 in1026.8 mb 0.00 in0.0 mm 0.00 in0.0 mm 0.00 in0.0 mm
02:30 AM 41.7°F5.4°C 35.1°F1.7°C 77% 2.2 mph SW3.5 kmh SW 6.0 mph9.7 kmh 30.32 in1026.8 mb 0.00 in0.0 mm 0.00 in0.0 mm 0.00 in0.0 mm
02:35 AM 41.7°F5.4°C 34.7°F1.5°C 76% 2.3 mph WSW3.7 kmh WSW 6.9 mph11.1 kmh 30.33 in1027.1 mb 0.00 in0.0 mm 0.00 in0.0 mm 0.00 in0.0 mm
02:40 AM 41.9°F5.5°C 34.9°F1.6°C 76% 2.3 mph WSW3.7 kmh WSW 6.9 mph11.1 kmh 30.32 in1026.8 mb 0.00 in0.0 mm 0.00 in0.0 mm 0.00 in0.0 mm
02:45 AM 41.9°F5.5°C 34.9°F1.6°C 76% 2.2 mph WSW3.5 kmh WSW 6.9 mph11.1 kmh 30.33 in1027.1 mb 0.00 in0.0 mm 0.00 in0.0 mm 0.00 in0.0 mm
02:50 AM 41.9°F5.5°C 35.2°F1.8°C 77% 2.4 mph WSW3.9 kmh WSW 6.9 mph11.1 kmh 30.33 in1027.1 mb 0.00 in0.0 mm 0.00 in0.0 mm 0.00 in0.0 mm
02:55 AM 41.7°F5.4°C 35.4°F1.9°C 78% 2.5 mph WSW4.0 kmh WSW 6.9 mph11.1 kmh 30.32 in1026.8 mb 0.00 in0.0 mm 0.00 in0.0 mm 0.00 in0.0 mm
03:00 AM 41.5°F5.3°C 35.8°F2.1°C 80% 2.2 mph WSW3.5 kmh WSW 6.0 mph9.7 kmh 30.32 in1026.8 mb 0.00 in0.0 mm 0.00 in0.0 mm 0.00 in0.0 mm
03:05 AM 41.4°F5.2°C 36.3°F2.4°C 82% 1.8 mph WSW2.9 kmh WSW 4.5 mph7.2 kmh 30.32 in1026.8 mb 0.00 in0.0 mm 0.00 in0.0 mm 0.00 in0.0 mm
03:10 AM 41.2°F5.1°C 36.4°F2.4°C 83% 1.8 mph WSW2.9 kmh WSW 5.4 mph8.7 kmh 30.32 in1026.8 mb 0.00 in0.0 mm 0.00 in0.0 mm 0.00 in0.0 mm
03:15 AM 41.0°F5.0°C 36.8°F2.7°C 85% 2.1 mph WSW3.4 kmh WSW 6.0 mph9.7 kmh 30.32 in1026.8 mb 0.00 in0.0 mm 0.00 in0.0 mm 0.00 in0.0 mm
03:20 AM 40.8°F4.9°C 37.3°F2.9°C 87% 2.3 mph WSW3.7 kmh WSW 6.0 mph9.7 kmh 30.32 in1026.8 mb 0.00 in0.0 mm 0.00 in0.0 mm 0.00 in0.0 mm
03:25 AM 40.5°F4.7°C 37.2°F2.9°C 88% 2.1 mph SW3.4 kmh SW 6.0 mph9.7 kmh 30.32 in1026.8 mb 0.01 in0.3 mm 0.12 in3.0 mm 0.01 in0.3 mm
03:30 AM 40.5°F4.7°C 37.5°F3.1°C 89% 1.6 mph SW2.6 kmh SW 6.0 mph9.7 kmh 30.32 in1026.8 mb 0.01 in0.3 mm 0.00 in0.0 mm 0.01 in0.3 mm
03:35 AM 40.3°F4.6°C 37.6°F3.1°C 90% 1.6 mph WSW2.6 kmh WSW 5.4 mph8.7 kmh 30.32 in1026.8 mb 0.01 in0.3 mm 0.00 in0.0 mm 0.01 in0.3 mm
03:40 AM 39.9°F4.4°C 37.5°F3.1°C 91% 2.2 mph WSW3.5 kmh WSW 8.3 mph13.4 kmh 30.32 in1026.8 mb 0.01 in0.3 mm 0.00 in0.0 mm 0.01 in0.3 mm
03:45 AM 39.7°F4.3°C 37.6°F3.1°C 92% 2.8 mph WSW4.5 kmh WSW 8.3 mph13.4 kmh 30.32 in1026.8 mb 0.01 in0.3 mm 0.00 in0.0 mm 0.01 in0.3 mm
03:50 AM 39.4°F4.1°C 37.5°F3.1°C 93% 3.1 mph W5.0 kmh W 9.2 mph14.8 kmh 30.32 in1026.8 mb 0.01 in0.3 mm 0.00 in0.0 mm 0.01 in0.3 mm
03:55 AM 39.2°F4.0°C 38.2°F3.4°C 96% 3.3 mph WSW5.3 kmh WSW 9.8 mph15.8 kmh 30.32 in1026.8 mb 0.01 in0.3 mm 0.00 in0.0 mm 0.01 in0.3 mm
04:00 AM 38.8°F3.8°C 38.1°F3.4°C 97% 3.3 mph WSW5.3 kmh WSW 9.8 mph15.8 kmh 30.32 in1026.8 mb 0.01 in0.3 mm 0.00 in0.0 mm 0.01 in0.3 mm
04:05 AM 38.7°F3.7°C 38.1°F3.4°C 98% 3.6 mph WSW5.8 kmh WSW 9.2 mph14.8 kmh 30.32 in1026.8 mb 0.01 in0.3 mm 0.00 in0.0 mm 0.01 in0.3 mm
04:10 AM 38.5°F3.6°C 38.2°F3.4°C 99% 3.8 mph WSW6.1 kmh WSW 9.8 mph15.8 kmh 30.32 in1026.8 mb 0.01 in0.3 mm 0.00 in0.0 mm 0.01 in0.3 mm
04:15 AM 38.3°F3.5°C 38.0°F3.3°C 99% 3.9 mph WSW6.3 kmh WSW 9.8 mph15.8 kmh 30.31 in1026.4 mb 0.01 in0.3 mm 0.00 in0.0 mm 0.01 in0.3 mm
04:20 AM 38.1°F3.4°C 37.9°F3.3°C 99% 3.4 mph WSW5.5 kmh WSW 9.2 mph14.8 kmh 30.31 in1026.4 mb 0.01 in0.3 mm 0.00 in0.0 mm 0.01 in0.3 mm
04:25 AM 38.1°F3.4°C 37.9°F3.3°C 99% 2.8 mph WSW4.5 kmh WSW 6.0 mph9.7 kmh 30.31 in1026.4 mb 0.00 in0.0 mm 0.00 in0.0 mm 0.01 in0.3 mm
04:30 AM 38.1°F3.4°C 37.9°F3.3°C 99% 3.0 mph WSW4.8 kmh WSW 6.0 mph9.7 kmh 30.30 in1026.1 mb 0.00 in0.0 mm 0.00 in0.0 mm 0.01 in0.3 mm
04:35 AM 37.9°F3.3°C 37.7°F3.2°C 99% 3.1 mph WSW5.0 kmh WSW 7.6 mph12.2 kmh 30.31 in1026.4 mb 0.00 in0.0 mm 0.00 in0.0 mm 0.01 in0.3 mm
04:40 AM 37.9°F3.3°C 37.7°F3.2°C 99% 3.2 mph WSW5.1 kmh WSW 7.6 mph12.2 kmh 30.31 in1026.4 mb 0.01 in0.3 mm 0.12 in3.0 mm 0.02 in0.5 mm
04:45 AM 37.9°F3.3°C 37.7°F3.2°C 99% 3.1 mph SW5.0 kmh SW 6.9 mph11.1 kmh 30.31 in1026.4 mb 0.01 in0.3 mm 0.00 in0.0 mm 0.02 in0.5 mm
04:50 AM 37.9°F3.3°C 37.7°F3.2°C 99% 2.9 mph WSW4.7 kmh WSW 6.9 mph11.1 kmh 30.31 in1026.4 mb 0.01 in0.3 mm 0.00 in0.0 mm 0.02 in0.5 mm
04:55 AM 37.9°F3.3°C 37.7°F3.2°C 99% 2.9 mph WSW4.7 kmh WSW 6.9 mph11.1 kmh 30.31 in1026.4 mb 0.01 in0.3 mm 0.00 in0.0 mm 0.02 in0.5 mm
05:00 AM 37.9°F3.3°C 37.7°F3.2°C 99% 3.0 mph WSW4.8 kmh WSW 9.2 mph14.8 kmh 30.31 in1026.4 mb 0.02 in0.5 mm 0.01 in0.3 mm 0.04 in1.0 mm
05:05 AM 37.8°F3.2°C 37.5°F3.1°C 99% 2.9 mph WSW4.7 kmh WSW 9.2 mph14.8 kmh 30.31 in1026.4 mb 0.04 in1.0 mm 0.24 in6.1 mm 0.05 in1.3 mm
05:10 AM 37.8°F3.2°C 37.5°F3.1°C 99% 2.0 mph WSW3.2 kmh WSW 7.6 mph12.2 kmh 30.31 in1026.4 mb 0.05 in1.3 mm 0.12 in3.0 mm 0.06 in1.5 mm
05:15 AM 37.8°F3.2°C 37.5°F3.1°C 99% 1.4 mph WSW2.3 kmh WSW 5.4 mph8.7 kmh 30.31 in1026.4 mb 0.06 in1.5 mm 0.12 in3.0 mm 0.07 in1.8 mm
05:20 AM 37.8°F3.2°C 37.5°F3.1°C 99% 1.8 mph W2.9 kmh W 5.4 mph8.7 kmh 30.31 in1026.4 mb 0.07 in1.8 mm 0.12 in3.0 mm 0.08 in2.0 mm
05:25 AM 37.8°F3.2°C 37.5°F3.1°C 99% 1.8 mph W2.9 kmh W 5.4 mph8.7 kmh 30.31 in1026.4 mb 0.08 in2.0 mm 0.12 in3.0 mm 0.09 in2.3 mm
05:30 AM 37.6°F3.1°C 37.3°F2.9°C 99% 2.2 mph WSW3.5 kmh WSW 7.6 mph12.2 kmh 30.31 in1026.4 mb 0.08 in2.0 mm 0.00 in0.0 mm 0.09 in2.3 mm
05:35 AM 37.6°F3.1°C 37.3°F2.9°C 99% 2.6 mph SW4.2 kmh SW 7.6 mph12.2 kmh 30.30 in1026.1 mb 0.11 in2.8 mm 0.36 in9.1 mm 0.12 in3.0 mm
05:40 AM 37.6°F3.1°C 37.3°F2.9°C 99% 2.2 mph WSW3.5 kmh WSW 6.9 mph11.1 kmh 30.30 in1026.1 mb 0.09 in2.3 mm 0.00 in0.0 mm 0.12 in3.0 mm
05:45 AM 37.6°F3.1°C 37.3°F2.9°C 99% 1.9 mph WSW3.1 kmh WSW 6.9 mph11.1 kmh 30.30 in1026.1 mb 0.11 in2.8 mm 0.24 in6.1 mm 0.13 in3.3 mm
05:50 AM 37.6°F3.1°C 37.3°F2.9°C 99% 1.7 mph WSW2.7 kmh WSW 6.0 mph9.7 kmh 30.30 in1026.1 mb 0.12 in3.0 mm 0.12 in3.0 mm 0.14 in3.6 mm
05:55 AM 37.2°F2.9°C 37.0°F2.8°C 99% 2.4 mph SW3.9 kmh SW 7.6 mph12.2 kmh 30.30 in1026.1 mb 0.13 in3.3 mm 0.12 in3.0 mm 0.15 in3.8 mm
06:00 AM 37.2°F2.9°C 37.0°F2.8°C 99% 2.8 mph SW4.5 kmh SW 8.3 mph13.4 kmh 30.30 in1026.1 mb 0.12 in3.0 mm 0.00 in0.0 mm 0.15 in3.8 mm
06:05 AM 37.0°F2.8°C 36.8°F2.7°C 99% 2.8 mph WSW4.5 kmh WSW 8.3 mph13.4 kmh 30.30 in1026.1 mb 0.12 in3.0 mm 0.00 in0.0 mm 0.17 in4.3 mm
06:10 AM 36.9°F2.7°C 36.6°F2.6°C 99% 2.8 mph WSW4.5 kmh WSW 6.9 mph11.1 kmh 30.30 in1026.1 mb 0.11 in2.8 mm 0.00 in0.0 mm 0.17 in4.3 mm
06:15 AM 36.7°F2.6°C 36.4°F2.4°C 99% 2.6 mph WSW4.2 kmh WSW 6.9 mph11.1 kmh 30.30 in1026.1 mb 0.11 in2.8 mm 0.00 in0.0 mm 0.18 in4.6 mm
06:20 AM 36.7°F2.6°C 36.4°F2.4°C 99% 2.9 mph WSW4.7 kmh WSW 6.9 mph11.1 kmh 30.31 in1026.4 mb 0.09 in2.3 mm 0.00 in0.0 mm 0.18 in4.6 mm
06:25 AM 36.5°F2.5°C 36.2°F2.3°C 99% 3.2 mph WSW5.1 kmh WSW 6.9 mph11.1 kmh 30.31 in1026.4 mb 0.08 in2.0 mm 0.00 in0.0 mm 0.18 in4.6 mm
06:30 AM 36.5°F2.5°C 36.2°F2.3°C 99% 3.3 mph WSW5.3 kmh WSW 7.6 mph12.2 kmh 30.31 in1026.4 mb 0.08 in2.0 mm 0.00 in0.0 mm 0.18 in4.6 mm
06:35 AM 36.5°F2.5°C 36.2°F2.3°C 99% 3.2 mph WSW5.1 kmh WSW 7.6 mph12.2 kmh 30.31 in1026.4 mb 0.06 in1.5 mm 0.00 in0.0 mm 0.18 in4.6 mm
06:40 AM 36.3°F2.4°C 36.1°F2.3°C 99% 3.9 mph WSW6.3 kmh WSW 9.8 mph15.8 kmh 30.32 in1026.8 mb 0.06 in1.5 mm 0.00 in0.0 mm 0.19 in4.8 mm
06:45 AM 36.1°F2.3°C 35.9°F2.2°C 99% 4.1 mph SW6.6 kmh SW 10.7 mph17.2 kmh 30.32 in1026.8 mb 0.05 in1.3 mm 0.00 in0.0 mm 0.19 in4.8 mm
06:50 AM 36.1°F2.3°C 35.9°F2.2°C 99% 4.0 mph SW6.4 kmh SW 10.7 mph17.2 kmh 30.33 in1027.1 mb 0.05 in1.3 mm 0.00 in0.0 mm 0.19 in4.8 mm
06:55 AM 36.1°F2.3°C 35.9°F2.2°C 99% 5.1 mph WSW8.2 kmh WSW 11.4 mph18.3 kmh 30.33 in1027.1 mb 0.04 in1.0 mm 0.00 in0.0 mm 0.19 in4.8 mm
07:00 AM 36.1°F2.3°C 35.9°F2.2°C 99% 5.1 mph WSW8.2 kmh WSW 11.4 mph18.3 kmh 30.33 in1027.1 mb 0.04 in1.0 mm 0.00 in0.0 mm 0.19 in4.8 mm
07:05 AM 36.1°F2.3°C 35.9°F2.2°C 99% 4.1 mph SW6.6 kmh SW 10.7 mph17.2 kmh 30.32 in1026.8 mb 0.02 in0.5 mm 0.00 in0.0 mm 0.19 in4.8 mm
07:10 AM 36.1°F2.3°C 35.9°F2.2°C 99% 3.0 mph WSW4.8 kmh WSW 8.3 mph13.4 kmh 30.32 in1026.8 mb 0.01 in0.3 mm 0.00 in0.0 mm 0.19 in4.8 mm
07:15 AM 36.1°F2.3°C 35.9°F2.2°C 99% 2.8 mph WSW4.5 kmh WSW 8.3 mph13.4 kmh 30.32 in1026.8 mb 0.02 in0.5 mm 0.12 in3.0 mm 0.20 in5.1 mm
07:20 AM 36.3°F2.4°C 36.1°F2.3°C 99% 2.3 mph WSW3.7 kmh WSW 6.9 mph11.1 kmh 30.32 in1026.8 mb 0.02 in0.5 mm 0.00 in0.0 mm 0.20 in5.1 mm
07:25 AM 36.3°F2.4°C 36.1°F2.3°C 99% 1.9 mph SW3.1 kmh SW 6.9 mph11.1 kmh 30.32 in1026.8 mb 0.02 in0.5 mm 0.00 in0.0 mm 0.20 in5.1 mm
07:30 AM 36.3°F2.4°C 36.1°F2.3°C 99% 1.9 mph SW3.1 kmh SW 6.9 mph11.1 kmh 30.32 in1026.8 mb 0.04 in1.0 mm 0.24 in6.1 mm 0.21 in5.3 mm
07:35 AM 36.5°F2.5°C 36.2°F2.3°C 99% 1.8 mph WSW2.9 kmh WSW 6.9 mph11.1 kmh 30.32 in1026.8 mb 0.04 in1.0 mm 0.00 in0.0 mm 0.21 in5.3 mm
07:40 AM 36.5°F2.5°C 36.2°F2.3°C 99% 1.8 mph WSW2.9 kmh WSW 6.0 mph9.7 kmh 30.33 in1027.1 mb 0.02 in0.5 mm 0.00 in0.0 mm 0.21 in5.3 mm
07:45 AM 36.5°F2.5°C 36.2°F2.3°C 99% 2.3 mph WSW3.7 kmh WSW 6.9 mph11.1 kmh 30.32 in1026.8 mb 0.04 in1.0 mm 0.24 in6.1 mm 0.22 in5.6 mm
07:50 AM 36.5°F2.5°C 36.2°F2.3°C 99% 2.8 mph WSW4.5 kmh WSW 6.9 mph11.1 kmh 30.33 in1027.1 mb 0.05 in1.3 mm 0.12 in3.0 mm 0.24 in6.1 mm
07:55 AM 36.5°F2.5°C 36.2°F2.3°C 99% 2.6 mph WSW4.2 kmh WSW 6.9 mph11.1 kmh 30.33 in1027.1 mb 0.06 in1.5 mm 0.12 in3.0 mm 0.25 in6.4 mm
08:00 AM 36.5°F2.5°C 36.2°F2.3°C 99% 2.4 mph SW3.9 kmh SW 7.6 mph12.2 kmh 30.32 in1026.8 mb 0.07 in1.8 mm 0.01 in0.3 mm 0.26 in6.6 mm
08:05 AM 36.5°F2.5°C 36.2°F2.3°C 99% 2.6 mph SW4.2 kmh SW 7.6 mph12.2 kmh 30.32 in1026.8 mb 0.08 in2.0 mm 0.12 in3.0 mm 0.27 in6.9 mm
08:10 AM 36.5°F2.5°C 36.2°F2.3°C 99% 2.6 mph SW4.2 kmh SW 6.0 mph9.7 kmh 30.32 in1026.8 mb 0.09 in2.3 mm 0.12 in3.0 mm 0.28 in7.1 mm
08:15 AM 36.3°F2.4°C 36.1°F2.3°C 99% 2.7 mph SW4.3 kmh SW 7.6 mph12.2 kmh 30.32 in1026.8 mb 0.08 in2.0 mm 0.00 in0.0 mm 0.28 in7.1 mm
08:20 AM 36.3°F2.4°C 36.1°F2.3°C 99% 2.6 mph SW4.2 kmh SW 7.6 mph12.2 kmh 30.33 in1027.1 mb 0.09 in2.3 mm 0.12 in3.0 mm 0.30 in7.6 mm
08:25 AM 36.3°F2.4°C 36.1°F2.3°C 99% 1.9 mph WSW3.1 kmh WSW 7.6 mph12.2 kmh 30.33 in1027.1 mb 0.09 in2.3 mm 0.00 in0.0 mm 0.30 in7.6 mm
08:30 AM 36.3°F2.4°C 36.1°F2.3°C 99% 2.2 mph W3.5 kmh W 6.9 mph11.1 kmh 30.33 in1027.1 mb 0.08 in2.0 mm 0.00 in0.0 mm 0.30 in7.6 mm
08:35 AM 36.3°F2.4°C 36.1°F2.3°C 99% 2.4 mph W3.9 kmh W 6.9 mph11.1 kmh 30.33 in1027.1 mb 0.09 in2.3 mm 0.12 in3.0 mm 0.31 in7.9 mm
08:40 AM 36.3°F2.4°C 36.1°F2.3°C 99% 2.3 mph WSW3.7 kmh WSW 6.0 mph9.7 kmh 30.33 in1027.1 mb 0.09 in2.3 mm 0.00 in0.0 mm 0.31 in7.9 mm
08:45 AM 36.3°F2.4°C 36.1°F2.3°C 99% 2.6 mph SW4.2 kmh SW 6.0 mph9.7 kmh 30.34 in1027.4 mb 0.08 in2.0 mm 0.00 in0.0 mm 0.31 in7.9 mm
08:50 AM 36.5°F2.5°C 36.2°F2.3°C 99% 2.6 mph WSW4.2 kmh WSW 6.9 mph11.1 kmh 30.33 in1027.1 mb 0.07 in1.8 mm 0.00 in0.0 mm 0.31 in7.9 mm
08:55 AM 36.5°F2.5°C 36.2°F2.3°C 99% 2.4 mph WSW3.9 kmh WSW 6.9 mph11.1 kmh 30.34 in1027.4 mb 0.06 in1.5 mm 0.00 in0.0 mm 0.32 in8.1 mm
09:00 AM 36.5°F2.5°C 36.2°F2.3°C 99% 2.5 mph WSW4.0 kmh WSW 6.9 mph11.1 kmh 30.34 in1027.4 mb 0.05 in1.3 mm 0.00 in0.0 mm 0.32 in8.1 mm
09:05 AM 36.7°F2.6°C 36.4°F2.4°C 99% 2.4 mph WSW3.9 kmh WSW 6.9 mph11.1 kmh 30.34 in1027.4 mb 0.05 in1.3 mm 0.00 in0.0 mm 0.32 in8.1 mm
09:10 AM 36.7°F2.6°C 36.4°F2.4°C 99% 2.6 mph WSW4.2 kmh WSW 6.9 mph11.1 kmh 30.34 in1027.4 mb 0.04 in1.0 mm 0.00 in0.0 mm 0.32 in8.1 mm
09:15 AM 36.9°F2.7°C 36.6°F2.6°C 99% 2.8 mph WSW4.5 kmh WSW 7.6 mph12.2 kmh 30.34 in1027.4 mb 0.04 in1.0 mm 0.00 in0.0 mm 0.32 in8.1 mm
09:20 AM 36.7°F2.6°C 36.4°F2.4°C 99% 2.7 mph WSW4.3 kmh WSW 7.6 mph12.2 kmh 30.35 in1027.8 mb 0.02 in0.5 mm 0.00 in0.0 mm 0.32 in8.1 mm
09:25 AM 36.7°F2.6°C 36.4°F2.4°C 99% 2.7 mph WSW4.3 kmh WSW 7.6 mph12.2 kmh 30.35 in1027.8 mb 0.04 in1.0 mm 0.24 in6.1 mm 0.33 in8.4 mm
09:30 AM 36.7°F2.6°C 36.4°F2.4°C 99% 2.3 mph SW3.7 kmh SW 7.6 mph12.2 kmh 30.35 in1027.8 mb 0.04 in1.0 mm 0.00 in0.0 mm 0.33 in8.4 mm
09:35 AM 36.7°F2.6°C 36.4°F2.4°C 99% 2.2 mph SW3.5 kmh SW 8.3 mph13.4 kmh 30.35 in1027.8 mb 0.02 in0.5 mm 0.00 in0.0 mm 0.33 in8.4 mm
09:40 AM 36.7°F2.6°C 36.4°F2.4°C 99% 3.2 mph W5.1 kmh W 8.3 mph13.4 kmh 30.35 in1027.8 mb 0.02 in0.5 mm 0.00 in0.0 mm 0.33 in8.4 mm
09:45 AM 36.7°F2.6°C 36.4°F2.4°C 99% 3.5 mph W5.6 kmh W 8.3 mph13.4 kmh 30.35 in1027.8 mb 0.02 in0.5 mm 0.00 in0.0 mm 0.33 in8.4 mm
09:50 AM 36.7°F2.6°C 36.4°F2.4°C 99% 2.9 mph W4.7 kmh W 8.3 mph13.4 kmh 30.35 in1027.8 mb 0.02 in0.5 mm 0.00 in0.0 mm 0.33 in8.4 mm
09:55 AM 36.7°F2.6°C 36.4°F2.4°C 99% 3.1 mph WSW5.0 kmh WSW 8.3 mph13.4 kmh 30.36 in1028.1 mb 0.01 in0.3 mm 0.00 in0.0 mm 0.33 in8.4 mm
10:00 AM 36.7°F2.6°C 36.4°F2.4°C 99% 3.7 mph WSW6.0 kmh WSW 9.2 mph14.8 kmh 30.36 in1028.1 mb 0.02 in0.5 mm 0.01 in0.3 mm 0.34 in8.6 mm
10:05 AM 36.9°F2.7°C 36.6°F2.6°C 99% 3.3 mph WSW5.3 kmh WSW 9.2 mph14.8 kmh 30.36 in1028.1 mb 0.02 in0.5 mm 0.00 in0.0 mm 0.34 in8.6 mm
10:10 AM 36.7°F2.6°C 36.4°F2.4°C 99% 2.5 mph WSW4.0 kmh WSW 6.9 mph11.1 kmh 30.36 in1028.1 mb 0.02 in0.5 mm 0.00 in0.0 mm 0.34 in8.6 mm
10:15 AM 36.7°F2.6°C 36.4°F2.4°C 99% 2.7 mph WSW4.3 kmh WSW 9.2 mph14.8 kmh 30.36 in1028.1 mb 0.02 in0.5 mm 0.00 in0.0 mm 0.34 in8.6 mm
10:20 AM 36.9°F2.7°C 36.6°F2.6°C 99% 3.0 mph SW4.8 kmh SW 9.2 mph14.8 kmh 30.36 in1028.1 mb 0.04 in1.0 mm 0.24 in6.1 mm 0.35 in8.9 mm
10:25 AM 37.0°F2.8°C 36.8°F2.7°C 99% 2.5 mph SW4.0 kmh SW 9.2 mph14.8 kmh 30.35 in1027.8 mb 0.02 in0.5 mm 0.00 in0.0 mm 0.35 in8.9 mm
10:30 AM 37.2°F2.9°C 37.0°F2.8°C 99% 2.2 mph WSW3.5 kmh WSW 6.9 mph11.1 kmh 30.36 in1028.1 mb 0.02 in0.5 mm 0.00 in0.0 mm 0.35 in8.9 mm
10:35 AM 37.2°F2.9°C 37.0°F2.8°C 99% 2.6 mph WSW4.2 kmh WSW 6.9 mph11.1 kmh 30.36 in1028.1 mb 0.02 in0.5 mm 0.00 in0.0 mm 0.35 in8.9 mm
10:40 AM 37.2°F2.9°C 37.0°F2.8°C 99% 2.5 mph WSW4.0 kmh WSW 6.9 mph11.1 kmh 30.35 in1027.8 mb 0.04 in1.0 mm 0.24 in6.1 mm 0.37 in9.4 mm
10:45 AM 37.0°F2.8°C 36.8°F2.7°C 99% 1.8 mph WSW2.9 kmh WSW 5.4 mph8.7 kmh 30.35 in1027.8 mb 0.04 in1.0 mm 0.00 in0.0 mm 0.37 in9.4 mm
10:50 AM 37.2°F2.9°C 37.0°F2.8°C 99% 2.6 mph WSW4.2 kmh WSW 9.8 mph15.8 kmh 30.35 in1027.8 mb 0.05 in1.3 mm 0.12 in3.0 mm 0.38 in9.7 mm
10:55 AM 37.2°F2.9°C 37.0°F2.8°C 99% 3.1 mph WSW5.0 kmh WSW 9.8 mph15.8 kmh 30.35 in1027.8 mb 0.05 in1.3 mm 0.00 in0.0 mm 0.38 in9.7 mm
11:00 AM 37.4°F3.0°C 37.1°F2.8°C 99% 2.5 mph WSW4.0 kmh WSW 6.9 mph11.1 kmh 30.35 in1027.8 mb 0.04 in1.0 mm 0.00 in0.0 mm 0.38 in9.7 mm
11:05 AM 37.4°F3.0°C 37.1°F2.8°C 99% 2.8 mph W4.5 kmh W 8.3 mph13.4 kmh 30.35 in1027.8 mb 0.04 in1.0 mm 0.00 in0.0 mm 0.38 in9.7 mm
11:10 AM 37.4°F3.0°C 37.1°F2.8°C 99% 3.2 mph WSW5.1 kmh WSW 8.3 mph13.4 kmh 30.35 in1027.8 mb 0.04 in1.0 mm 0.00 in0.0 mm 0.38 in9.7 mm
11:15 AM 37.4°F3.0°C 37.1°F2.8°C 99% 2.9 mph WSW4.7 kmh WSW 8.3 mph13.4 kmh 30.34 in1027.4 mb 0.04 in1.0 mm 0.00 in0.0 mm 0.38 in9.7 mm
11:20 AM 37.2°F2.9°C 37.0°F2.8°C 99% 2.7 mph WSW4.3 kmh WSW 6.9 mph11.1 kmh 30.34 in1027.4 mb 0.04 in1.0 mm 0.00 in0.0 mm 0.39 in9.9 mm
11:25 AM 37.2°F2.9°C 37.0°F2.8°C 99% 3.1 mph WSW5.0 kmh WSW 6.9 mph11.1 kmh 30.33 in1027.1 mb 0.04 in1.0 mm 0.00 in0.0 mm 0.39 in9.9 mm
11:30 AM 37.2°F2.9°C 37.0°F2.8°C 99% 2.9 mph SW4.7 kmh SW 8.3 mph13.4 kmh 30.33 in1027.1 mb 0.04 in1.0 mm 0.00 in0.0 mm 0.39 in9.9 mm
11:35 AM 37.0°F2.8°C 36.8°F2.7°C 99% 2.9 mph WSW4.7 kmh WSW 8.3 mph13.4 kmh 30.33 in1027.1 mb 0.04 in1.0 mm 0.00 in0.0 mm 0.39 in9.9 mm
11:40 AM 37.2°F2.9°C 37.0°F2.8°C 99% 2.9 mph WSW4.7 kmh WSW 7.6 mph12.2 kmh 30.33 in1027.1 mb 0.02 in0.5 mm 0.00 in0.0 mm 0.39 in9.9 mm
11:45 AM 37.4°F3.0°C 37.1°F2.8°C 99% 2.0 mph WSW3.2 kmh WSW 6.9 mph11.1 kmh 30.33 in1027.1 mb 0.02 in0.5 mm 0.00 in0.0 mm 0.39 in9.9 mm
11:50 AM 37.6°F3.1°C 37.3°F2.9°C 99% 1.7 mph W2.7 kmh W 5.4 mph8.7 kmh 30.32 in1026.8 mb 0.01 in0.3 mm 0.00 in0.0 mm 0.39 in9.9 mm
11:55 AM 37.6°F3.1°C 37.3°F2.9°C 99% 2.0 mph WSW3.2 kmh WSW 5.4 mph8.7 kmh 30.32 in1026.8 mb 0.01 in0.3 mm 0.00 in0.0 mm 0.39 in9.9 mm
12:00 PM 37.8°F3.2°C 37.5°F3.1°C 99% 1.8 mph SW2.9 kmh SW 3.8 mph6.1 kmh 30.32 in1026.8 mb 0.01 in0.3 mm 0.00 in0.0 mm 0.39 in9.9 mm
12:05 PM 37.8°F3.2°C 37.5°F3.1°C 99% 2.1 mph SW3.4 kmh SW 6.0 mph9.7 kmh 30.32 in1026.8 mb 0.01 in0.3 mm 0.00 in0.0 mm 0.39 in9.9 mm
12:10 PM 37.8°F3.2°C 37.5°F3.1°C 99% 2.4 mph SW3.9 kmh SW 6.0 mph9.7 kmh 30.32 in1026.8 mb 0.01 in0.3 mm 0.00 in0.0 mm 0.39 in9.9 mm
12:15 PM 37.6°F3.1°C 37.3°F2.9°C 99% 2.3 mph SW3.7 kmh SW 6.9 mph11.1 kmh 30.31 in1026.4 mb 0.01 in0.3 mm 0.00 in0.0 mm 0.39 in9.9 mm
12:20 PM 37.6°F3.1°C 37.3°F2.9°C 99% 2.5 mph WSW4.0 kmh WSW 7.6 mph12.2 kmh 30.31 in1026.4 mb 0.00 in0.0 mm 0.00 in0.0 mm 0.39 in9.9 mm
12:25 PM 37.8°F3.2°C 37.5°F3.1°C 99% 2.3 mph WSW3.7 kmh WSW 7.6 mph12.2 kmh 30.31 in1026.4 mb 0.00 in0.0 mm 0.00 in0.0 mm 0.39 in9.9 mm
12:30 PM 37.8°F3.2°C 37.5°F3.1°C 99% 2.0 mph WSW3.2 kmh WSW 6.0 mph9.7 kmh 30.32 in1026.8 mb 0.00 in0.0 mm 0.00 in0.0 mm 0.39 in9.9 mm
12:35 PM 37.8°F3.2°C 37.5°F3.1°C 99% 2.2 mph WSW3.5 kmh WSW 6.9 mph11.1 kmh 30.32 in1026.8 mb 0.00 in0.0 mm 0.00 in0.0 mm 0.39 in9.9 mm
12:40 PM 37.8°F3.2°C 37.5°F3.1°C 99% 2.9 mph WSW4.7 kmh WSW 6.9 mph11.1 kmh 30.32 in1026.8 mb 0.01 in0.3 mm 0.12 in3.0 mm 0.40 in10.2 mm
12:45 PM 37.9°F3.3°C 37.7°F3.2°C 99% 3.3 mph WSW5.3 kmh WSW 7.6 mph12.2 kmh 30.32 in1026.8 mb 0.01 in0.3 mm 0.00 in0.0 mm 0.40 in10.2 mm
12:50 PM 37.9°F3.3°C 37.7°F3.2°C 99% 3.1 mph WSW5.0 kmh WSW 7.6 mph12.2 kmh 30.32 in1026.8 mb 0.01 in0.3 mm 0.00 in0.0 mm 0.40 in10.2 mm
12:55 PM 37.9°F3.3°C 37.7°F3.2°C 99% 3.4 mph W5.5 kmh W 7.6 mph12.2 kmh 30.32 in1026.8 mb 0.01 in0.3 mm 0.00 in0.0 mm 0.40 in10.2 mm
01:00 PM 37.9°F3.3°C 37.7°F3.2°C 99% 3.5 mph W5.6 kmh W 9.8 mph15.8 kmh 30.32 in1026.8 mb 0.02 in0.5 mm 0.01 in0.3 mm 0.41 in10.4 mm
01:05 PM 37.9°F3.3°C 37.7°F3.2°C 99% 3.1 mph W5.0 kmh W 9.8 mph15.8 kmh 30.32 in1026.8 mb 0.02 in0.5 mm 0.00 in0.0 mm 0.41 in10.4 mm
01:10 PM 37.9°F3.3°C 37.7°F3.2°C 99% 2.8 mph WSW4.5 kmh WSW 8.3 mph13.4 kmh 30.31 in1026.4 mb 0.02 in0.5 mm 0.00 in0.0 mm 0.41 in10.4 mm
01:15 PM 37.8°F3.2°C 37.5°F3.1°C 99% 2.4 mph WSW3.9 kmh WSW 7.6 mph12.2 kmh 30.31 in1026.4 mb 0.04 in1.0 mm 0.24 in6.1 mm 0.43 in10.9 mm
01:20 PM 37.6°F3.1°C 37.3°F2.9°C 99% 2.5 mph WSW4.0 kmh WSW 7.6 mph12.2 kmh 30.31 in1026.4 mb 0.04 in1.0 mm 0.00 in0.0 mm 0.43 in10.9 mm
01:25 PM 37.6°F3.1°C 37.3°F2.9°C 99% 2.9 mph W4.7 kmh W 7.6 mph12.2 kmh 30.31 in1026.4 mb 0.05 in1.3 mm 0.12 in3.0 mm 0.44 in11.2 mm
01:30 PM 37.4°F3.0°C 37.1°F2.8°C 99% 3.3 mph W5.3 kmh W 8.3 mph13.4 kmh 30.31 in1026.4 mb 0.07 in1.8 mm 0.24 in6.1 mm 0.46 in11.7 mm
01:35 PM 37.6°F3.1°C 37.3°F2.9°C 99% 3.3 mph W5.3 kmh W 8.3 mph13.4 kmh 30.31 in1026.4 mb 0.09 in2.3 mm 0.24 in6.1 mm 0.48 in12.2 mm
01:40 PM 37.8°F3.2°C 37.5°F3.1°C 99% 2.5 mph W4.0 kmh W 6.9 mph11.1 kmh 30.31 in1026.4 mb 0.09 in2.3 mm 0.00 in0.0 mm 0.50 in12.7 mm
01:45 PM 37.6°F3.1°C 37.3°F2.9°C 99% 3.1 mph W5.0 kmh W 10.7 mph17.2 kmh 30.31 in1026.4 mb 0.11 in2.8 mm 0.24 in6.1 mm 0.51 in13.0 mm
01:50 PM 37.6°F3.1°C 37.3°F2.9°C 99% 3.6 mph W5.8 kmh W 10.7 mph17.2 kmh 30.31 in1026.4 mb 0.12 in3.0 mm 0.12 in3.0 mm 0.52 in13.2 mm
01:55 PM 37.4°F3.0°C 37.1°F2.8°C 99% 3.0 mph WSW4.8 kmh WSW 9.2 mph14.8 kmh 30.31 in1026.4 mb 0.14 in3.6 mm 0.24 in6.1 mm 0.54 in13.7 mm
02:00 PM 37.4°F3.0°C 37.1°F2.8°C 99% 3.0 mph WSW4.8 kmh WSW 7.6 mph12.2 kmh 30.30 in1026.1 mb 0.14 in3.6 mm 0.00 in0.0 mm 0.56 in14.2 mm
02:05 PM 37.2°F2.9°C 37.0°F2.8°C 99% 3.0 mph W4.8 kmh W 8.3 mph13.4 kmh 30.30 in1026.1 mb 0.15 in3.8 mm 0.12 in3.0 mm 0.57 in14.5 mm
02:10 PM 37.2°F2.9°C 37.0°F2.8°C 99% 2.7 mph WSW4.3 kmh WSW 8.3 mph13.4 kmh 30.30 in1026.1 mb 0.17 in4.3 mm 0.24 in6.1 mm 0.58 in14.7 mm
02:15 PM 37.0°F2.8°C 36.8°F2.7°C 99% 2.4 mph SW3.9 kmh SW 7.6 mph12.2 kmh 30.30 in1026.1 mb 0.15 in3.8 mm 0.00 in0.0 mm 0.58 in14.7 mm
02:20 PM 37.0°F2.8°C 36.8°F2.7°C 99% 2.2 mph SW3.5 kmh SW 6.9 mph11.1 kmh 30.29 in1025.7 mb 0.17 in4.3 mm 0.24 in6.1 mm 0.59 in15.0 mm
02:25 PM 37.0°F2.8°C 36.8°F2.7°C 99% 1.7 mph SW2.7 kmh SW 5.4 mph8.7 kmh 30.29 in1025.7 mb 0.14 in3.6 mm 0.00 in0.0 mm 0.59 in15.0 mm
02:30 PM 36.7°F2.6°C 36.4°F2.4°C 99% 2.0 mph SW3.2 kmh SW 6.9 mph11.1 kmh 30.29 in1025.7 mb 0.13 in3.3 mm 0.00 in0.0 mm 0.60 in15.2 mm
02:35 PM 36.7°F2.6°C 36.4°F2.4°C 99% 2.6 mph WSW4.2 kmh WSW 7.6 mph12.2 kmh 30.29 in1025.7 mb 0.12 in3.0 mm 0.00 in0.0 mm 0.60 in15.2 mm
02:40 PM 36.7°F2.6°C 36.4°F2.4°C 99% 2.4 mph W3.9 kmh W 7.6 mph12.2 kmh 30.29 in1025.7 mb 0.11 in2.8 mm 0.00 in0.0 mm 0.60 in15.2 mm
02:45 PM 36.7°F2.6°C 36.4°F2.4°C 99% 2.8 mph W4.5 kmh W 6.9 mph11.1 kmh 30.30 in1026.1 mb 0.09 in2.3 mm 0.00 in0.0 mm 0.61 in15.5 mm
02:50 PM 36.7°F2.6°C 36.4°F2.4°C 99% 2.6 mph WSW4.2 kmh WSW 6.9 mph11.1 kmh 30.30 in1026.1 mb 0.11 in2.8 mm 0.24 in6.1 mm 0.63 in16.0 mm
02:55 PM 36.5°F2.5°C 36.2°F2.3°C 99% 2.4 mph W3.9 kmh W 7.6 mph12.2 kmh 30.30 in1026.1 mb 0.09 in2.3 mm 0.00 in0.0 mm 0.64 in16.3 mm
03:00 PM 36.5°F2.5°C 36.2°F2.3°C 99% 3.0 mph W4.8 kmh W 11.4 mph18.3 kmh 30.30 in1026.1 mb 0.09 in2.3 mm 0.00 in0.0 mm 0.65 in16.5 mm
03:05 PM 36.3°F2.4°C 36.1°F2.3°C 99% 3.5 mph W5.6 kmh W 11.4 mph18.3 kmh 30.30 in1026.1 mb 0.08 in2.0 mm 0.00 in0.0 mm 0.65 in16.5 mm
03:10 PM 36.1°F2.3°C 35.9°F2.2°C 99% 3.4 mph W5.5 kmh W 9.8 mph15.8 kmh 30.30 in1026.1 mb 0.08 in2.0 mm 0.00 in0.0 mm 0.66 in16.8 mm
03:15 PM 36.0°F2.2°C 35.7°F2.1°C 99% 3.3 mph W5.3 kmh W 7.6 mph12.2 kmh 30.30 in1026.1 mb 0.11 in2.8 mm 0.36 in9.1 mm 0.69 in17.5 mm
03:20 PM 36.0°F2.2°C 35.7°F2.1°C 99% 3.4 mph W5.5 kmh W 9.2 mph14.8 kmh 30.30 in1026.1 mb 0.09 in2.3 mm 0.00 in0.0 mm 0.69 in17.5 mm
03:25 PM 36.0°F2.2°C 35.7°F2.1°C 99% 3.1 mph WSW5.0 kmh WSW 9.2 mph14.8 kmh 30.30 in1026.1 mb 0.11 in2.8 mm 0.24 in6.1 mm 0.70 in17.8 mm
03:30 PM 35.8°F2.1°C 35.5°F1.9°C 99% 3.2 mph W5.1 kmh W 9.2 mph14.8 kmh 30.30 in1026.1 mb 0.11 in2.8 mm 0.00 in0.0 mm 0.71 in18.0 mm
03:35 PM 35.8°F2.1°C 35.5°F1.9°C 99% 3.5 mph W5.6 kmh W 9.8 mph15.8 kmh 30.30 in1026.1 mb 0.11 in2.8 mm 0.00 in0.0 mm 0.71 in18.0 mm
03:40 PM 35.6°F2.0°C 35.4°F1.9°C 99% 3.3 mph WSW5.3 kmh WSW 9.8 mph15.8 kmh 30.30 in1026.1 mb 0.11 in2.8 mm 0.00 in0.0 mm 0.72 in18.3 mm
03:45 PM 35.6°F2.0°C 35.4°F1.9°C 99% 2.9 mph WSW4.7 kmh WSW 8.3 mph13.4 kmh 30.31 in1026.4 mb 0.12 in3.0 mm 0.12 in3.0 mm 0.73 in18.5 mm
03:50 PM 35.4°F1.9°C 35.2°F1.8°C 99% 3.2 mph W5.1 kmh W 8.3 mph13.4 kmh 30.31 in1026.4 mb 0.12 in3.0 mm 0.00 in0.0 mm 0.74 in18.8 mm
03:55 PM 35.4°F1.9°C 35.2°F1.8°C 99% 3.2 mph W5.1 kmh W 7.6 mph12.2 kmh 30.31 in1026.4 mb 0.11 in2.8 mm 0.00 in0.0 mm 0.74 in18.8 mm
04:00 PM 35.2°F1.8°C 35.0°F1.7°C 99% 2.8 mph W4.5 kmh W 9.2 mph14.8 kmh 30.31 in1026.4 mb 0.12 in3.0 mm 0.01 in0.3 mm 0.77 in19.6 mm
04:05 PM 35.2°F1.8°C 35.0°F1.7°C 99% 2.9 mph WSW4.7 kmh WSW 10.7 mph17.2 kmh 30.32 in1026.8 mb 0.13 in3.3 mm 0.12 in3.0 mm 0.78 in19.8 mm
04:10 PM 35.2°F1.8°C 35.0°F1.7°C 99% 2.7 mph WSW4.3 kmh WSW 10.7 mph17.2 kmh 30.32 in1026.8 mb 0.13 in3.3 mm 0.00 in0.0 mm 0.79 in20.1 mm
04:15 PM 35.2°F1.8°C 35.0°F1.7°C 99% 2.4 mph WSW3.9 kmh WSW 6.0 mph9.7 kmh 30.32 in1026.8 mb 0.13 in3.3 mm 0.00 in0.0 mm 0.81 in20.6 mm
04:20 PM 35.2°F1.8°C 35.0°F1.7°C 99% 2.8 mph SW4.5 kmh SW 8.3 mph13.4 kmh 30.32 in1026.8 mb 0.13 in3.3 mm 0.00 in0.0 mm 0.81 in20.6 mm
04:25 PM 35.2°F1.8°C 35.0°F1.7°C 99% 3.0 mph WSW4.8 kmh WSW 8.3 mph13.4 kmh 30.32 in1026.8 mb 0.12 in3.0 mm 0.00 in0.0 mm 0.81 in20.6 mm
04:30 PM 35.2°F1.8°C 35.0°F1.7°C 99% 2.6 mph WSW4.2 kmh WSW 8.3 mph13.4 kmh 30.32 in1026.8 mb 0.12 in3.0 mm 0.00 in0.0 mm 0.83 in21.1 mm
04:35 PM 35.2°F1.8°C 35.0°F1.7°C 99% 2.5 mph WSW4.0 kmh WSW 6.0 mph9.7 kmh 30.32 in1026.8 mb 0.12 in3.0 mm 0.00 in0.0 mm 0.83 in21.1 mm
04:40 PM 35.2°F1.8°C 35.0°F1.7°C 99% 2.8 mph WSW4.5 kmh WSW 8.3 mph13.4 kmh 30.32 in1026.8 mb 0.11 in2.8 mm 0.00 in0.0 mm 0.83 in21.1 mm
04:45 PM 35.2°F1.8°C 35.0°F1.7°C 99% 2.8 mph W4.5 kmh W 8.3 mph13.4 kmh 30.32 in1026.8 mb 0.09 in2.3 mm 0.00 in0.0 mm 0.83 in21.1 mm
04:50 PM 35.2°F1.8°C 35.0°F1.7°C 99% 2.6 mph W4.2 kmh W 8.3 mph13.4 kmh 30.32 in1026.8 mb 0.09 in2.3 mm 0.00 in0.0 mm 0.84 in21.3 mm
04:55 PM 35.4°F1.9°C 35.2°F1.8°C 99% 2.7 mph WSW4.3 kmh WSW 6.9 mph11.1 kmh 30.33 in1027.1 mb 0.11 in2.8 mm 0.24 in6.1 mm 0.85 in21.6 mm
05:00 PM 35.2°F1.8°C 35.0°F1.7°C 99% 2.7 mph SW4.3 kmh SW 6.0 mph9.7 kmh 30.33 in1027.1 mb 0.09 in2.3 mm 0.00 in0.0 mm 0.86 in21.8 mm
05:05 PM 35.4°F1.9°C 35.2°F1.8°C 99% 2.5 mph WSW4.0 kmh WSW 8.3 mph13.4 kmh 30.33 in1027.1 mb 0.09 in2.3 mm 0.00 in0.0 mm 0.87 in22.1 mm
05:10 PM 35.2°F1.8°C 35.0°F1.7°C 99% 2.8 mph WSW4.5 kmh WSW 8.3 mph13.4 kmh 30.33 in1027.1 mb 0.08 in2.0 mm 0.00 in0.0 mm 0.89 in22.6 mm
05:15 PM 35.1°F1.7°C 34.8°F1.6°C 99% 2.8 mph W4.5 kmh W 7.6 mph12.2 kmh 30.32 in1026.8 mb 0.08 in2.0 mm 0.00 in0.0 mm 0.90 in22.9 mm
05:20 PM 35.1°F1.7°C 34.8°F1.6°C 99% 3.2 mph W5.1 kmh W 8.3 mph13.4 kmh 30.33 in1027.1 mb 0.08 in2.0 mm 0.00 in0.0 mm 0.90 in22.9 mm
05:25 PM 34.9°F1.6°C 34.6°F1.4°C 99% 3.7 mph W6.0 kmh W 8.3 mph13.4 kmh 30.34 in1027.4 mb 0.08 in2.0 mm 0.00 in0.0 mm 0.90 in22.9 mm
05:30 PM 34.9°F1.6°C 34.6°F1.4°C 99% 3.1 mph W5.0 kmh W 7.6 mph12.2 kmh 30.33 in1027.1 mb 0.08 in2.0 mm 0.00 in0.0 mm 0.91 in23.1 mm
05:35 PM 34.9°F1.6°C 34.6°F1.4°C 99% 2.6 mph WSW4.2 kmh WSW 7.6 mph12.2 kmh 30.33 in1027.1 mb 0.08 in2.0 mm 0.00 in0.0 mm 0.91 in23.1 mm
05:40 PM 34.9°F1.6°C 34.6°F1.4°C 99% 2.7 mph WSW4.3 kmh WSW 6.9 mph11.1 kmh 30.33 in1027.1 mb 0.08 in2.0 mm 0.00 in0.0 mm 0.91 in23.1 mm
05:45 PM 34.9°F1.6°C 34.6°F1.4°C 99% 2.9 mph WSW4.7 kmh WSW 6.9 mph11.1 kmh 30.33 in1027.1 mb 0.08 in2.0 mm 0.00 in0.0 mm 0.91 in23.1 mm
05:50 PM 34.9°F1.6°C 34.6°F1.4°C 99% 3.5 mph W5.6 kmh W 9.8 mph15.8 kmh 30.33 in1027.1 mb 0.08 in2.0 mm 0.00 in0.0 mm 0.92 in23.4 mm
05:55 PM 34.9°F1.6°C 34.6°F1.4°C 99% 3.0 mph W4.8 kmh W 9.8 mph15.8 kmh 30.33 in1027.1 mb 0.07 in1.8 mm 0.00 in0.0 mm 0.92 in23.4 mm
06:00 PM 34.9°F1.6°C 34.6°F1.4°C 99% 2.6 mph WSW4.2 kmh WSW 6.9 mph11.1 kmh 30.33 in1027.1 mb 0.07 in1.8 mm 0.00 in0.0 mm 0.93 in23.6 mm
06:05 PM 34.9°F1.6°C 34.6°F1.4°C 99% 2.8 mph WSW4.5 kmh WSW 6.9 mph11.1 kmh 30.33 in1027.1 mb 0.06 in1.5 mm 0.00 in0.0 mm 0.93 in23.6 mm
06:10 PM 34.9°F1.6°C 34.6°F1.4°C 99% 2.8 mph WSW4.5 kmh WSW 6.9 mph11.1 kmh 30.32 in1026.8 mb 0.06 in1.5 mm 0.00 in0.0 mm 0.94 in23.9 mm
06:15 PM 34.9°F1.6°C 34.6°F1.4°C 99% 2.9 mph WSW4.7 kmh WSW 6.9 mph11.1 kmh 30.33 in1027.1 mb 0.05 in1.3 mm 0.00 in0.0 mm 0.94 in23.9 mm
06:20 PM 35.1°F1.7°C 34.8°F1.6°C 99% 2.4 mph WSW3.9 kmh WSW 6.9 mph11.1 kmh 30.33 in1027.1 mb 0.06 in1.5 mm 0.12 in3.0 mm 0.96 in24.4 mm
06:25 PM 35.1°F1.7°C 34.8°F1.6°C 99% 2.0 mph WSW3.2 kmh WSW 6.0 mph9.7 kmh 30.34 in1027.4 mb 0.06 in1.5 mm 0.00 in0.0 mm 0.96 in24.4 mm
06:30 PM 35.1°F1.7°C 34.8°F1.6°C 99% 2.0 mph WSW3.2 kmh WSW 7.6 mph12.2 kmh 30.34 in1027.4 mb 0.06 in1.5 mm 0.00 in0.0 mm 0.97 in24.6 mm
06:35 PM 35.1°F1.7°C 34.8°F1.6°C 99% 2.3 mph WSW3.7 kmh WSW 7.6 mph12.2 kmh 30.34 in1027.4 mb 0.06 in1.5 mm 0.00 in0.0 mm 0.97 in24.6 mm
06:40 PM 35.1°F1.7°C 34.8°F1.6°C 99% 2.7 mph W4.3 kmh W 7.6 mph12.2 kmh 30.35 in1027.8 mb 0.07 in1.8 mm 0.12 in3.0 mm 0.98 in24.9 mm
06:45 PM 34.9°F1.6°C 34.6°F1.4°C 99% 3.2 mph W5.1 kmh W 7.6 mph12.2 kmh 30.34 in1027.4 mb 0.07 in1.8 mm 0.00 in0.0 mm 0.98 in24.9 mm
06:50 PM 35.1°F1.7°C 34.8°F1.6°C 99% 3.0 mph W4.8 kmh W 7.6 mph12.2 kmh 30.34 in1027.4 mb 0.06 in1.5 mm 0.00 in0.0 mm 0.98 in24.9 mm
06:55 PM 35.1°F1.7°C 34.8°F1.6°C 99% 2.4 mph WSW3.9 kmh WSW 7.6 mph12.2 kmh 30.34 in1027.4 mb 0.07 in1.8 mm 0.12 in3.0 mm 0.99 in25.1 mm
07:00 PM 35.1°F1.7°C 34.8°F1.6°C 99% 2.2 mph W3.5 kmh W 6.0 mph9.7 kmh 30.35 in1027.8 mb 0.06 in1.5 mm 0.00 in0.0 mm 0.99 in25.1 mm
07:05 PM 35.1°F1.7°C 34.8°F1.6°C 99% 2.0 mph W3.2 kmh W 6.0 mph9.7 kmh 30.35 in1027.8 mb 0.06 in1.5 mm 0.00 in0.0 mm 0.99 in25.1 mm
07:10 PM 35.1°F1.7°C 34.8°F1.6°C 99% 2.3 mph WSW3.7 kmh WSW 6.0 mph9.7 kmh 30.34 in1027.4 mb 0.06 in1.5 mm 0.00 in0.0 mm 1.00 in25.4 mm
07:15 PM 35.1°F1.7°C 34.8°F1.6°C 99% 2.3 mph W3.7 kmh W 6.0 mph9.7 kmh 30.35 in1027.8 mb 0.07 in1.8 mm 0.12 in3.0 mm 1.02 in25.9 mm
07:20 PM 35.1°F1.7°C 34.8°F1.6°C 99% 1.9 mph W3.1 kmh W 5.4 mph8.7 kmh 30.35 in1027.8 mb 0.06 in1.5 mm 0.00 in0.0 mm 1.02 in25.9 mm
07:25 PM 35.1°F1.7°C 34.8°F1.6°C 99% 2.2 mph WSW3.5 kmh WSW 5.4 mph8.7 kmh 30.35 in1027.8 mb 0.07 in1.8 mm 0.12 in3.0 mm 1.03 in26.2 mm
07:30 PM 35.1°F1.7°C 34.8°F1.6°C 99% 2.2 mph W3.5 kmh W 5.4 mph8.7 kmh 30.35 in1027.8 mb 0.06 in1.5 mm 0.00 in0.0 mm 1.03 in26.2 mm
07:35 PM 35.1°F1.7°C 34.8°F1.6°C 99% 2.4 mph W3.9 kmh W 6.9 mph11.1 kmh 30.35 in1027.8 mb 0.06 in1.5 mm 0.00 in0.0 mm 1.03 in26.2 mm
07:40 PM 35.1°F1.7°C 34.8°F1.6°C 99% 2.5 mph W4.0 kmh W 6.9 mph11.1 kmh 30.35 in1027.8 mb 0.06 in1.5 mm 0.00 in0.0 mm 1.04 in26.4 mm
07:45 PM 35.1°F1.7°C 34.8°F1.6°C 99% 1.9 mph WSW3.1 kmh WSW 8.3 mph13.4 kmh 30.35 in1027.8 mb 0.06 in1.5 mm 0.00 in0.0 mm 1.04 in26.4 mm
07:50 PM 35.1°F1.7°C 34.8°F1.6°C 99% 2.5 mph W4.0 kmh W 8.3 mph13.4 kmh 30.35 in1027.8 mb 0.07 in1.8 mm 0.12 in3.0 mm 1.05 in26.7 mm
07:55 PM 34.9°F1.6°C 34.6°F1.4°C 99% 3.0 mph WNW4.8 kmh WNW 8.3 mph13.4 kmh 30.35 in1027.8 mb 0.06 in1.5 mm 0.00 in0.0 mm 1.05 in26.7 mm
08:00 PM 35.1°F1.7°C 34.8°F1.6°C 99% 2.6 mph WNW4.2 kmh WNW 6.9 mph11.1 kmh 30.36 in1028.1 mb 0.07 in1.8 mm 0.01 in0.3 mm 1.06 in26.9 mm
08:05 PM 34.9°F1.6°C 34.6°F1.4°C 99% 2.3 mph WSW3.7 kmh WSW 6.9 mph11.1 kmh 30.36 in1028.1 mb 0.06 in1.5 mm 0.00 in0.0 mm 1.06 in26.9 mm
08:10 PM 34.9°F1.6°C 34.6°F1.4°C 99% 2.9 mph SW4.7 kmh SW 7.6 mph12.2 kmh 30.35 in1027.8 mb 0.07 in1.8 mm 0.12 in3.0 mm 1.07 in27.2 mm
08:15 PM 34.7°F1.5°C 34.5°F1.4°C 99% 3.2 mph WSW5.1 kmh WSW 7.6 mph12.2 kmh 30.35 in1027.8 mb 0.08 in2.0 mm 0.12 in3.0 mm 1.10 in27.9 mm
08:20 PM 34.5°F1.4°C 34.3°F1.3°C 99% 2.8 mph W4.5 kmh W 6.9 mph11.1 kmh 30.36 in1028.1 mb 0.09 in2.3 mm 0.12 in3.0 mm 1.11 in28.2 mm
08:25 PM 34.3°F1.3°C 34.1°F1.2°C 99% 3.0 mph WSW4.8 kmh WSW 7.6 mph12.2 kmh 30.36 in1028.1 mb 0.09 in2.3 mm 0.00 in0.0 mm 1.12 in28.4 mm
08:30 PM 34.3°F1.3°C 34.1°F1.2°C 99% 2.7 mph WSW4.3 kmh WSW 7.6 mph12.2 kmh 30.35 in1027.8 mb 0.11 in2.8 mm 0.24 in6.1 mm 1.13 in28.7 mm
08:35 PM 34.2°F1.2°C 33.9°F1.1°C 99% 2.8 mph SW4.5 kmh SW 7.6 mph12.2 kmh 30.36 in1028.1 mb 0.13 in3.3 mm 0.24 in6.1 mm 1.16 in29.5 mm
08:40 PM 33.8°F1.0°C 33.6°F0.9°C 99% 3.2 mph WSW5.1 kmh WSW 7.6 mph12.2 kmh 30.35 in1027.8 mb 0.13 in3.3 mm 0.00 in0.0 mm 1.17 in29.7 mm
08:45 PM 33.6°F0.9°C 33.4°F0.8°C 99% 2.8 mph WSW4.5 kmh WSW 6.9 mph11.1 kmh 30.35 in1027.8 mb 0.14 in3.6 mm 0.12 in3.0 mm 1.18 in30.0 mm
08:50 PM 33.4°F0.8°C 33.2°F0.7°C 99% 2.4 mph WSW3.9 kmh WSW 6.9 mph11.1 kmh 30.35 in1027.8 mb 0.17 in4.3 mm 0.36 in9.1 mm 1.22 in31.0 mm
08:55 PM 33.3°F0.7°C 33.0°F0.6°C 99% 1.9 mph WSW3.1 kmh WSW 6.9 mph11.1 kmh 30.35 in1027.8 mb 0.18 in4.6 mm 0.12 in3.0 mm 1.23 in31.2 mm
09:00 PM 33.3°F0.7°C 33.0°F0.6°C 99% 1.5 mph WSW2.4 kmh WSW 4.5 mph7.2 kmh 30.35 in1027.8 mb 0.18 in4.6 mm 0.00 in0.0 mm 1.24 in31.5 mm
09:05 PM 33.1°F0.6°C 32.8°F0.4°C 99% 1.5 mph SW2.4 kmh SW 4.5 mph7.2 kmh 30.35 in1027.8 mb 0.19 in4.8 mm 0.12 in3.0 mm 1.25 in31.8 mm
09:10 PM 33.3°F0.7°C 33.0°F0.6°C 99% 1.9 mph SW3.1 kmh SW 5.4 mph8.7 kmh 30.36 in1028.1 mb 0.18 in4.6 mm 0.00 in0.0 mm 1.25 in31.8 mm
09:15 PM 33.1°F0.6°C 32.8°F0.4°C 99% 2.2 mph WSW3.5 kmh WSW 5.4 mph8.7 kmh 30.35 in1027.8 mb 0.17 in4.3 mm 0.00 in0.0 mm 1.26 in32.0 mm
09:20 PM 33.1°F0.6°C 32.8°F0.4°C 99% 1.8 mph WSW2.9 kmh WSW 4.5 mph7.2 kmh 30.35 in1027.8 mb 0.15 in3.8 mm 0.00 in0.0 mm 1.26 in32.0 mm
09:25 PM 33.1°F0.6°C 32.8°F0.4°C 99% 1.5 mph WSW2.4 kmh WSW 3.8 mph6.1 kmh 30.35 in1027.8 mb 0.15 in3.8 mm 0.00 in0.0 mm 1.28 in32.5 mm
09:30 PM 33.1°F0.6°C 32.8°F0.4°C 99% 1.1 mph SW1.8 kmh SW 3.8 mph6.1 kmh 30.36 in1028.1 mb 0.14 in3.6 mm 0.00 in0.0 mm 1.28 in32.5 mm
09:35 PM 33.3°F0.7°C 33.0°F0.6°C 99% 1.1 mph SW1.8 kmh SW 4.5 mph7.2 kmh 30.35 in1027.8 mb 0.13 in3.3 mm 0.00 in0.0 mm 1.29 in32.8 mm
09:40 PM 33.3°F0.7°C 33.0°F0.6°C 99% 1.5 mph WSW2.4 kmh WSW 4.5 mph7.2 kmh 30.36 in1028.1 mb 0.13 in3.3 mm 0.00 in0.0 mm 1.30 in33.0 mm
09:45 PM 33.3°F0.7°C 33.0°F0.6°C 99% 1.4 mph SW2.3 kmh SW 4.5 mph7.2 kmh 30.35 in1027.8 mb 0.13 in3.3 mm 0.00 in0.0 mm 1.31 in33.3 mm
09:50 PM 33.4°F0.8°C 33.2°F0.7°C 99% 1.2 mph WSW1.9 kmh WSW 5.4 mph8.7 kmh 30.35 in1027.8 mb 0.09 in2.3 mm 0.00 in0.0 mm 1.31 in33.3 mm
09:55 PM 33.6°F0.9°C 33.4°F0.8°C 99% 1.5 mph SW2.4 kmh SW 5.4 mph8.7 kmh 30.35 in1027.8 mb 0.09 in2.3 mm 0.00 in0.0 mm 1.32 in33.5 mm
10:00 PM 33.6°F0.9°C 33.4°F0.8°C 99% 1.8 mph SW2.9 kmh SW 5.4 mph8.7 kmh 30.35 in1027.8 mb 0.09 in2.3 mm 0.00 in0.0 mm 1.33 in33.8 mm
10:05 PM 33.8°F1.0°C 33.6°F0.9°C 99% 1.9 mph WSW3.1 kmh WSW 5.4 mph8.7 kmh 30.35 in1027.8 mb 0.08 in2.0 mm 0.00 in0.0 mm 1.33 in33.8 mm
10:10 PM 33.8°F1.0°C 33.6°F0.9°C 99% 1.6 mph WSW2.6 kmh WSW 5.4 mph8.7 kmh 30.35 in1027.8 mb 0.07 in1.8 mm 0.00 in0.0 mm 1.33 in33.8 mm
10:15 PM 33.8°F1.0°C 33.6°F0.9°C 99% 1.1 mph WSW1.8 kmh WSW 5.4 mph8.7 kmh 30.34 in1027.4 mb 0.08 in2.0 mm 0.12 in3.0 mm 1.35 in34.3 mm
10:20 PM 34.0°F1.1°C 33.7°F0.9°C 99% 1.4 mph SW2.3 kmh SW 6.0 mph9.7 kmh 30.35 in1027.8 mb 0.09 in2.3 mm 0.12 in3.0 mm 1.36 in34.5 mm
10:25 PM 34.0°F1.1°C 33.7°F0.9°C 99% 1.9 mph SW3.1 kmh SW 6.0 mph9.7 kmh 30.35 in1027.8 mb 0.08 in2.0 mm 0.00 in0.0 mm 1.36 in34.5 mm
10:30 PM 34.0°F1.1°C 33.7°F0.9°C 99% 2.2 mph SW3.5 kmh SW 5.4 mph8.7 kmh 30.35 in1027.8 mb 0.08 in2.0 mm 0.00 in0.0 mm 1.36 in34.5 mm
10:35 PM 34.0°F1.1°C 33.7°F0.9°C 99% 2.0 mph WSW3.2 kmh WSW 5.4 mph8.7 kmh 30.34 in1027.4 mb 0.08 in2.0 mm 0.00 in0.0 mm 1.37 in34.8 mm
10:40 PM 34.2°F1.2°C 33.9°F1.1°C 99% 1.6 mph WSW2.6 kmh WSW 5.4 mph8.7 kmh 30.34 in1027.4 mb 0.07 in1.8 mm 0.00 in0.0 mm 1.37 in34.8 mm
10:45 PM 34.2°F1.2°C 33.9°F1.1°C 99% 1.4 mph SW2.3 kmh SW 5.4 mph8.7 kmh 30.34 in1027.4 mb 0.06 in1.5 mm 0.00 in0.0 mm 1.37 in34.8 mm
10:50 PM 34.2°F1.2°C 33.9°F1.1°C 99% 1.5 mph SW2.4 kmh SW 4.5 mph7.2 kmh 30.34 in1027.4 mb 0.07 in1.8 mm 0.12 in3.0 mm 1.38 in35.1 mm
10:55 PM 34.2°F1.2°C 33.9°F1.1°C 99% 1.8 mph WSW2.9 kmh WSW 4.5 mph7.2 kmh 30.34 in1027.4 mb 0.06 in1.5 mm 0.00 in0.0 mm 1.38 in35.1 mm
11:00 PM 34.3°F1.3°C 34.1°F1.2°C 99% 1.8 mph SW2.9 kmh SW 4.5 mph7.2 kmh 30.34 in1027.4 mb 0.05 in1.3 mm 0.00 in0.0 mm 1.38 in35.1 mm
11:05 PM 34.3°F1.3°C 34.1°F1.2°C 99% 1.7 mph SW2.7 kmh SW 5.4 mph8.7 kmh 30.34 in1027.4 mb 0.05 in1.3 mm 0.00 in0.0 mm 1.38 in35.1 mm
11:10 PM 34.3°F1.3°C 34.1°F1.2°C 99% 1.5 mph SW2.4 kmh SW 5.4 mph8.7 kmh 30.34 in1027.4 mb 0.06 in1.5 mm 0.12 in3.0 mm 1.39 in35.3 mm
11:15 PM 34.3°F1.3°C 34.1°F1.2°C 99% 1.4 mph SW2.3 kmh SW 5.4 mph8.7 kmh 30.34 in1027.4 mb 0.05 in1.3 mm 0.00 in0.0 mm 1.39 in35.3 mm
11:20 PM 34.3°F1.3°C 34.1°F1.2°C 99% 1.8 mph WSW2.9 kmh WSW 6.0 mph9.7 kmh 30.34 in1027.4 mb 0.05 in1.3 mm 0.00 in0.0 mm 1.41 in35.8 mm
11:25 PM 34.5°F1.4°C 34.3°F1.3°C 99% 2.0 mph SW3.2 kmh SW 6.0 mph9.7 kmh 30.33 in1027.1 mb 0.05 in1.3 mm 0.00 in0.0 mm 1.41 in35.8 mm
11:30 PM 34.5°F1.4°C 34.3°F1.3°C 99% 2.1 mph WSW3.4 kmh WSW 6.9 mph11.1 kmh 30.33 in1027.1 mb 0.06 in1.5 mm 0.12 in3.0 mm 1.43 in36.3 mm
11:35 PM 34.5°F1.4°C 34.3°F1.3°C 99% 2.2 mph W3.5 kmh W 6.9 mph11.1 kmh 30.33 in1027.1 mb 0.07 in1.8 mm 0.12 in3.0 mm 1.44 in36.6 mm
11:40 PM 34.5°F1.4°C 34.3°F1.3°C 99% 2.0 mph W3.2 kmh W 6.0 mph9.7 kmh 30.32 in1026.8 mb 0.09 in2.3 mm 0.24 in6.1 mm 1.46 in37.1 mm
11:45 PM 34.5°F1.4°C 34.3°F1.3°C 99% 1.6 mph WSW2.6 kmh WSW 6.0 mph9.7 kmh 30.32 in1026.8 mb 0.12 in3.0 mm 0.36 in9.1 mm 1.49 in37.8 mm
11:50 PM 34.7°F1.5°C 34.5°F1.4°C 99% 1.8 mph SW2.9 kmh SW 5.4 mph8.7 kmh 30.32 in1026.8 mb 0.12 in3.0 mm 0.00 in0.0 mm 1.50 in38.1 mm
11:55 PM 34.7°F1.5°C 34.5°F1.4°C 99% 1.7 mph WSW2.7 kmh WSW 5.4 mph8.7 kmh 30.32 in1026.8 mb 0.13 in3.3 mm 0.12 in3.0 mm 1.51 in38.4 mm